sensor_id;sensor_type;location;lat;lon;timestamp;P1;durP1;ratioP1;P2;durP2;ratioP2
65667;SDS011;52369;52.542;13.232;2023-02-28T00:00:06;15.38;;;6.32;;
65667;SDS011;52369;52.542;13.232;2023-02-28T00:02:44;13.57;;;6.72;;
65667;SDS011;52369;52.542;13.232;2023-02-28T00:05:11;12.75;;;5.68;;
65667;SDS011;52369;52.542;13.232;2023-02-28T00:07:37;16.83;;;6.63;;
65667;SDS011;52369;52.542;13.232;2023-02-28T00:10:04;13.68;;;5.97;;
65667;SDS011;52369;52.542;13.232;2023-02-28T00:12:32;12.80;;;5.70;;
65667;SDS011;52369;52.542;13.232;2023-02-28T00:14:58;12.23;;;5.97;;
65667;SDS011;52369;52.542;13.232;2023-02-28T00:17:24;12.45;;;5.50;;
65667;SDS011;52369;52.542;13.232;2023-02-28T00:19:51;11.10;;;5.57;;
65667;SDS011;52369;52.542;13.232;2023-02-28T00:22:17;11.43;;;5.50;;
65667;SDS011;52369;52.542;13.232;2023-02-28T00:24:44;9.63;;;5.13;;
65667;SDS011;52369;52.542;13.232;2023-02-28T00:27:10;13.80;;;6.40;;
65667;SDS011;52369;52.542;13.232;2023-02-28T00:29:36;16.17;;;6.95;;
65667;SDS011;52369;52.542;13.232;2023-02-28T00:32:03;12.52;;;5.57;;
65667;SDS011;52369;52.542;13.232;2023-02-28T00:34:29;10.40;;;4.70;;
65667;SDS011;52369;52.542;13.232;2023-02-28T00:36:55;9.80;;;5.25;;
65667;SDS011;52369;52.542;13.232;2023-02-28T00:39:21;9.93;;;5.28;;
65667;SDS011;52369;52.542;13.232;2023-02-28T00:41:47;13.15;;;5.53;;
65667;SDS011;52369;52.542;13.232;2023-02-28T00:44:13;12.10;;;4.80;;
65667;SDS011;52369;52.542;13.232;2023-02-28T00:46:39;10.82;;;5.13;;
65667;SDS011;52369;52.542;13.232;2023-02-28T00:49:05;13.75;;;5.53;;
65667;SDS011;52369;52.542;13.232;2023-02-28T00:51:31;11.07;;;5.10;;
65667;SDS011;52369;52.542;13.232;2023-02-28T00:53:57;12.15;;;5.10;;
65667;SDS011;52369;52.542;13.232;2023-02-28T00:56:23;10.40;;;5.35;;
65667;SDS011;52369;52.542;13.232;2023-02-28T00:58:49;9.48;;;4.32;;
65667;SDS011;52369;52.542;13.232;2023-02-28T01:01:15;9.35;;;4.88;;
65667;SDS011;52369;52.542;13.232;2023-02-28T01:03:41;9.75;;;4.22;;
65667;SDS011;52369;52.542;13.232;2023-02-28T01:06:07;11.23;;;4.78;;
65667;SDS011;52369;52.542;13.232;2023-02-28T01:08:33;13.38;;;4.60;;
65667;SDS011;52369;52.542;13.232;2023-02-28T01:11:06;9.50;;;4.07;;
65667;SDS011;52369;52.542;13.232;2023-02-28T01:13:32;9.32;;;4.72;;
65667;SDS011;52369;52.542;13.232;2023-02-28T01:15:58;10.30;;;4.15;;
65667;SDS011;52369;52.542;13.232;2023-02-28T01:18:24;7.70;;;3.80;;
65667;SDS011;52369;52.542;13.232;2023-02-28T01:20:50;11.10;;;4.53;;
65667;SDS011;52369;52.542;13.232;2023-02-28T01:23:18;9.70;;;4.57;;
65667;SDS011;52369;52.542;13.232;2023-02-28T01:25:45;8.70;;;4.60;;
65667;SDS011;52369;52.542;13.232;2023-02-28T01:28:11;9.00;;;4.30;;
65667;SDS011;52369;52.542;13.232;2023-02-28T01:30:37;9.30;;;4.25;;
65667;SDS011;52369;52.542;13.232;2023-02-28T01:33:03;10.43;;;4.93;;
65667;SDS011;52369;52.542;13.232;2023-02-28T01:35:31;10.80;;;4.75;;
65667;SDS011;52369;52.542;13.232;2023-02-28T01:37:57;10.80;;;4.07;;
65667;SDS011;52369;52.542;13.232;2023-02-28T01:40:24;8.77;;;4.30;;
65667;SDS011;52369;52.542;13.232;2023-02-28T01:42:50;8.63;;;4.10;;
65667;SDS011;52369;52.542;13.232;2023-02-28T01:45:26;9.50;;;4.57;;
65667;SDS011;52369;52.542;13.232;2023-02-28T01:47:54;8.95;;;3.80;;
65667;SDS011;52369;52.542;13.232;2023-02-28T01:50:23;8.85;;;4.00;;
65667;SDS011;52369;52.542;13.232;2023-02-28T01:52:50;9.30;;;4.22;;
65667;SDS011;52369;52.542;13.232;2023-02-28T01:55:17;8.15;;;4.15;;
65667;SDS011;52369;52.542;13.232;2023-02-28T01:57:46;7.45;;;4.13;;
65667;SDS011;52369;52.542;13.232;2023-02-28T02:00:14;9.27;;;4.07;;
65667;SDS011;52369;52.542;13.232;2023-02-28T02:02:41;8.45;;;3.83;;
65667;SDS011;52369;52.542;13.232;2023-02-28T02:05:10;8.43;;;4.45;;
65667;SDS011;52369;52.542;13.232;2023-02-28T02:07:37;9.80;;;4.43;;
65667;SDS011;52369;52.542;13.232;2023-02-28T02:10:12;7.30;;;3.95;;
65667;SDS011;52369;52.542;13.232;2023-02-28T02:12:58;6.53;;;3.80;;
65667;SDS011;52369;52.542;13.232;2023-02-28T02:15:39;8.15;;;4.30;;
65667;SDS011;52369;52.542;13.232;2023-02-28T02:18:52;7.68;;;3.95;;
65667;SDS011;52369;52.542;13.232;2023-02-28T02:23:31;7.75;;;4.00;;
65667;SDS011;52369;52.542;13.232;2023-02-28T02:26:04;6.93;;;3.92;;
65667;SDS011;52369;52.542;13.232;2023-02-28T02:31:06;7.63;;;4.22;;
65667;SDS011;52369;52.542;13.232;2023-02-28T02:34:17;11.23;;;4.70;;
65667;SDS011;52369;52.542;13.232;2023-02-28T02:36:30;8.38;;;4.55;;
65667;SDS011;52369;52.542;13.232;2023-02-28T02:41:28;8.50;;;4.55;;
65667;SDS011;52369;52.542;13.232;2023-02-28T02:43:57;7.85;;;4.00;;
65667;SDS011;52369;52.542;13.232;2023-02-28T02:46:29;9.80;;;4.30;;
65667;SDS011;52369;52.542;13.232;2023-02-28T02:48:55;8.85;;;4.55;;
65667;SDS011;52369;52.542;13.232;2023-02-28T02:51:23;6.80;;;4.22;;
65667;SDS011;52369;52.542;13.232;2023-02-28T02:54:03;9.18;;;4.18;;
65667;SDS011;52369;52.542;13.232;2023-02-28T02:56:31;10.10;;;4.53;;
65667;SDS011;52369;52.542;13.232;2023-02-28T02:59:02;10.00;;;4.80;;
65667;SDS011;52369;52.542;13.232;2023-02-28T03:01:28;10.02;;;4.70;;
65667;SDS011;52369;52.542;13.232;2023-02-28T03:04:00;11.40;;;4.75;;
65667;SDS011;52369;52.542;13.232;2023-02-28T03:06:27;10.25;;;4.78;;
65667;SDS011;52369;52.542;13.232;2023-02-28T03:08:53;10.45;;;4.60;;
65667;SDS011;52369;52.542;13.232;2023-02-28T03:11:19;10.27;;;4.53;;
65667;SDS011;52369;52.542;13.232;2023-02-28T03:14:07;9.43;;;4.65;;
65667;SDS011;52369;52.542;13.232;2023-02-28T03:24:49;12.80;;;5.22;;
65667;SDS011;52369;52.542;13.232;2023-02-28T03:29:50;11.02;;;5.45;;
65667;SDS011;52369;52.542;13.232;2023-02-28T03:32:21;12.15;;;5.55;;
65667;SDS011;52369;52.542;13.232;2023-02-28T03:34:51;13.02;;;5.85;;
65667;SDS011;52369;52.542;13.232;2023-02-28T03:37:19;11.07;;;5.13;;
65667;SDS011;52369;52.542;13.232;2023-02-28T03:39:51;11.75;;;5.15;;
65667;SDS011;52369;52.542;13.232;2023-02-28T03:42:23;10.00;;;5.30;;
65667;SDS011;52369;52.542;13.232;2023-02-28T03:44:52;10.05;;;5.03;;
65667;SDS011;52369;52.542;13.232;2023-02-28T03:49:59;10.18;;;4.60;;
65667;SDS011;52369;52.542;13.232;2023-02-28T03:52:27;9.60;;;4.68;;
65667;SDS011;52369;52.542;13.232;2023-02-28T03:54:55;11.25;;;4.97;;
65667;SDS011;52369;52.542;13.232;2023-02-28T03:59:57;10.23;;;4.40;;
65667;SDS011;52369;52.542;13.232;2023-02-28T04:02:24;8.25;;;4.20;;
65667;SDS011;52369;52.542;13.232;2023-02-28T04:04:50;11.02;;;4.65;;
65667;SDS011;52369;52.542;13.232;2023-02-28T04:07:17;10.25;;;5.30;;
65667;SDS011;52369;52.542;13.232;2023-02-28T04:09:43;11.88;;;4.97;;
65667;SDS011;52369;52.542;13.232;2023-02-28T04:12:09;11.57;;;5.00;;
65667;SDS011;52369;52.542;13.232;2023-02-28T04:14:35;9.38;;;4.55;;
65667;SDS011;52369;52.542;13.232;2023-02-28T04:17:01;10.40;;;4.30;;
65667;SDS011;52369;52.542;13.232;2023-02-28T04:19:28;10.10;;;4.82;;
65667;SDS011;52369;52.542;13.232;2023-02-28T04:21:54;10.43;;;5.10;;
65667;SDS011;52369;52.542;13.232;2023-02-28T04:24:21;11.18;;;5.03;;
65667;SDS011;52369;52.542;13.232;2023-02-28T04:26:48;14.32;;;5.82;;
65667;SDS011;52369;52.542;13.232;2023-02-28T04:29:25;8.57;;;4.50;;
65667;SDS011;52369;52.542;13.232;2023-02-28T04:31:52;10.48;;;4.75;;
65667;SDS011;52369;52.542;13.232;2023-02-28T04:34:19;10.32;;;4.80;;
65667;SDS011;52369;52.542;13.232;2023-02-28T04:36:46;10.25;;;4.80;;
65667;SDS011;52369;52.542;13.232;2023-02-28T04:39:14;12.85;;;4.68;;
65667;SDS011;52369;52.542;13.232;2023-02-28T04:41:40;9.15;;;4.47;;
65667;SDS011;52369;52.542;13.232;2023-02-28T04:44:06;12.50;;;5.03;;
65667;SDS011;52369;52.542;13.232;2023-02-28T04:46:32;11.60;;;4.80;;
65667;SDS011;52369;52.542;13.232;2023-02-28T04:48:58;12.50;;;5.43;;
65667;SDS011;52369;52.542;13.232;2023-02-28T04:51:24;10.45;;;4.90;;
65667;SDS011;52369;52.542;13.232;2023-02-28T04:53:50;12.68;;;4.97;;
65667;SDS011;52369;52.542;13.232;2023-02-28T04:56:17;10.27;;;4.78;;
65667;SDS011;52369;52.542;13.232;2023-02-28T04:58:43;9.45;;;4.90;;
65667;SDS011;52369;52.542;13.232;2023-02-28T05:03:41;11.45;;;5.63;;
65667;SDS011;52369;52.542;13.232;2023-02-28T05:06:07;10.80;;;5.20;;
65667;SDS011;52369;52.542;13.232;2023-02-28T05:08:33;10.18;;;5.15;;
65667;SDS011;52369;52.542;13.232;2023-02-28T05:11:00;10.65;;;4.95;;
65667;SDS011;52369;52.542;13.232;2023-02-28T05:13:26;10.10;;;4.82;;
65667;SDS011;52369;52.542;13.232;2023-02-28T05:15:53;15.07;;;5.32;;
65667;SDS011;52369;52.542;13.232;2023-02-28T05:18:19;11.18;;;5.35;;
65667;SDS011;52369;52.542;13.232;2023-02-28T05:20:45;10.60;;;5.53;;
65667;SDS011;52369;52.542;13.232;2023-02-28T05:23:11;10.45;;;5.10;;
65667;SDS011;52369;52.542;13.232;2023-02-28T05:25:37;11.73;;;5.32;;
65667;SDS011;52369;52.542;13.232;2023-02-28T05:28:04;14.68;;;6.28;;
65667;SDS011;52369;52.542;13.232;2023-02-28T05:30:30;14.60;;;7.30;;
65667;SDS011;52369;52.542;13.232;2023-02-28T05:32:56;16.92;;;6.78;;
65667;SDS011;52369;52.542;13.232;2023-02-28T05:35:23;14.57;;;6.35;;
65667;SDS011;52369;52.542;13.232;2023-02-28T05:37:49;12.88;;;6.93;;
65667;SDS011;52369;52.542;13.232;2023-02-28T05:40:15;14.85;;;6.13;;
65667;SDS011;52369;52.542;13.232;2023-02-28T05:42:42;13.45;;;6.45;;
65667;SDS011;52369;52.542;13.232;2023-02-28T05:45:08;12.77;;;6.00;;
65667;SDS011;52369;52.542;13.232;2023-02-28T05:47:34;12.40;;;5.80;;
65667;SDS011;52369;52.542;13.232;2023-02-28T05:50:00;12.98;;;6.60;;
65667;SDS011;52369;52.542;13.232;2023-02-28T05:52:27;14.65;;;6.60;;
65667;SDS011;52369;52.542;13.232;2023-02-28T05:54:55;14.25;;;6.65;;
65667;SDS011;52369;52.542;13.232;2023-02-28T05:57:21;16.40;;;6.05;;
65667;SDS011;52369;52.542;13.232;2023-02-28T05:59:47;12.75;;;6.60;;
65667;SDS011;52369;52.542;13.232;2023-02-28T06:02:14;19.88;;;8.90;;
65667;SDS011;52369;52.542;13.232;2023-02-28T06:04:41;17.40;;;6.65;;
65667;SDS011;52369;52.542;13.232;2023-02-28T06:07:07;13.55;;;6.50;;
65667;SDS011;52369;52.542;13.232;2023-02-28T06:09:33;16.48;;;6.70;;
65667;SDS011;52369;52.542;13.232;2023-02-28T06:12:00;17.38;;;7.15;;
65667;SDS011;52369;52.542;13.232;2023-02-28T06:14:28;15.52;;;6.53;;
65667;SDS011;52369;52.542;13.232;2023-02-28T06:16:56;17.70;;;7.07;;
65667;SDS011;52369;52.542;13.232;2023-02-28T06:19:22;12.32;;;6.00;;
65667;SDS011;52369;52.542;13.232;2023-02-28T06:21:50;15.50;;;6.20;;
65667;SDS011;52369;52.542;13.232;2023-02-28T06:24:18;16.17;;;6.63;;
65667;SDS011;52369;52.542;13.232;2023-02-28T06:26:44;15.18;;;6.32;;
65667;SDS011;52369;52.542;13.232;2023-02-28T06:29:11;14.82;;;6.68;;
65667;SDS011;52369;52.542;13.232;2023-02-28T06:31:37;13.48;;;6.70;;
65667;SDS011;52369;52.542;13.232;2023-02-28T06:34:05;16.50;;;7.30;;
65667;SDS011;52369;52.542;13.232;2023-02-28T06:36:31;14.75;;;6.85;;
65667;SDS011;52369;52.542;13.232;2023-02-28T06:38:57;21.67;;;8.02;;
65667;SDS011;52369;52.542;13.232;2023-02-28T06:41:24;14.20;;;6.85;;
65667;SDS011;52369;52.542;13.232;2023-02-28T06:43:51;14.18;;;6.70;;
65667;SDS011;52369;52.542;13.232;2023-02-28T06:46:17;13.40;;;7.15;;
65667;SDS011;52369;52.542;13.232;2023-02-28T06:48:44;13.57;;;6.75;;
65667;SDS011;52369;52.542;13.232;2023-02-28T06:51:14;13.38;;;7.32;;
65667;SDS011;52369;52.542;13.232;2023-02-28T06:53:41;18.55;;;8.38;;
65667;SDS011;52369;52.542;13.232;2023-02-28T06:56:08;12.07;;;6.70;;
65667;SDS011;52369;52.542;13.232;2023-02-28T06:58:35;19.77;;;7.28;;
65667;SDS011;52369;52.542;13.232;2023-02-28T07:01:01;12.88;;;7.00;;
65667;SDS011;52369;52.542;13.232;2023-02-28T07:03:27;17.27;;;7.25;;
65667;SDS011;52369;52.542;13.232;2023-02-28T07:05:53;15.68;;;7.18;;
65667;SDS011;52369;52.542;13.232;2023-02-28T07:08:22;14.88;;;7.03;;
65667;SDS011;52369;52.542;13.232;2023-02-28T07:10:51;13.32;;;6.72;;
65667;SDS011;52369;52.542;13.232;2023-02-28T07:13:17;15.02;;;6.65;;
65667;SDS011;52369;52.542;13.232;2023-02-28T07:15:43;16.35;;;7.43;;
65667;SDS011;52369;52.542;13.232;2023-02-28T07:18:09;18.02;;;7.00;;
65667;SDS011;52369;52.542;13.232;2023-02-28T07:20:35;14.98;;;7.03;;
65667;SDS011;52369;52.542;13.232;2023-02-28T07:23:01;14.95;;;6.88;;
65667;SDS011;52369;52.542;13.232;2023-02-28T07:25:27;13.38;;;7.05;;
65667;SDS011;52369;52.542;13.232;2023-02-28T07:27:54;15.50;;;7.80;;
65667;SDS011;52369;52.542;13.232;2023-02-28T07:30:21;15.68;;;7.78;;
65667;SDS011;52369;52.542;13.232;2023-02-28T07:32:47;15.85;;;6.72;;
65667;SDS011;52369;52.542;13.232;2023-02-28T07:35:13;14.65;;;6.30;;
65667;SDS011;52369;52.542;13.232;2023-02-28T07:37:40;16.98;;;7.53;;
65667;SDS011;52369;52.542;13.232;2023-02-28T07:40:08;16.13;;;7.18;;
65667;SDS011;52369;52.542;13.232;2023-02-28T07:42:36;13.27;;;6.95;;
65667;SDS011;52369;52.542;13.232;2023-02-28T07:45:03;16.88;;;7.50;;
65667;SDS011;52369;52.542;13.232;2023-02-28T07:47:29;14.65;;;7.13;;
65667;SDS011;52369;52.542;13.232;2023-02-28T07:49:55;14.32;;;7.15;;
65667;SDS011;52369;52.542;13.232;2023-02-28T07:52:21;15.60;;;7.43;;
65667;SDS011;52369;52.542;13.232;2023-02-28T07:54:48;14.32;;;6.95;;
65667;SDS011;52369;52.542;13.232;2023-02-28T07:57:14;18.80;;;8.00;;
65667;SDS011;52369;52.542;13.232;2023-02-28T07:59:41;14.70;;;6.93;;
65667;SDS011;52369;52.542;13.232;2023-02-28T08:02:09;15.73;;;6.90;;
65667;SDS011;52369;52.542;13.232;2023-02-28T08:04:36;13.40;;;7.45;;
65667;SDS011;52369;52.542;13.232;2023-02-28T08:07:02;18.20;;;7.68;;
65667;SDS011;52369;52.542;13.232;2023-02-28T08:09:28;15.70;;;7.35;;
65667;SDS011;52369;52.542;13.232;2023-02-28T08:11:54;12.15;;;6.65;;
65667;SDS011;52369;52.542;13.232;2023-02-28T08:14:20;13.25;;;6.57;;
65667;SDS011;52369;52.542;13.232;2023-02-28T08:16:47;13.35;;;6.75;;
65667;SDS011;52369;52.542;13.232;2023-02-28T08:19:13;14.82;;;6.30;;
65667;SDS011;52369;52.542;13.232;2023-02-28T08:21:39;13.50;;;7.03;;
65667;SDS011;52369;52.542;13.232;2023-02-28T08:24:05;12.98;;;6.47;;
65667;SDS011;52369;52.542;13.232;2023-02-28T08:26:31;12.45;;;6.10;;
65667;SDS011;52369;52.542;13.232;2023-02-28T08:28:57;11.75;;;6.43;;
65667;SDS011;52369;52.542;13.232;2023-02-28T08:31:23;11.02;;;5.25;;
65667;SDS011;52369;52.542;13.232;2023-02-28T08:33:49;14.57;;;5.85;;
65667;SDS011;52369;52.542;13.232;2023-02-28T08:36:17;12.27;;;5.90;;
65667;SDS011;52369;52.542;13.232;2023-02-28T08:38:43;14.93;;;6.93;;
65667;SDS011;52369;52.542;13.232;2023-02-28T08:41:11;11.75;;;5.78;;
65667;SDS011;52369;52.542;13.232;2023-02-28T08:43:38;9.35;;;4.30;;
65667;SDS011;52369;52.542;13.232;2023-02-28T08:46:04;8.65;;;4.30;;
65667;SDS011;52369;52.542;13.232;2023-02-28T08:48:31;7.80;;;4.13;;
65667;SDS011;52369;52.542;13.232;2023-02-28T08:53:23;8.43;;;4.32;;
65667;SDS011;52369;52.542;13.232;2023-02-28T08:55:58;7.80;;;3.90;;
65667;SDS011;52369;52.542;13.232;2023-02-28T08:58:24;10.02;;;4.28;;
65667;SDS011;52369;52.542;13.232;2023-02-28T09:00:50;7.43;;;3.72;;
65667;SDS011;52369;52.542;13.232;2023-02-28T09:03:16;7.47;;;3.33;;
65667;SDS011;52369;52.542;13.232;2023-02-28T09:05:52;8.35;;;3.70;;
65667;SDS011;52369;52.542;13.232;2023-02-28T09:08:18;9.20;;;4.28;;
65667;SDS011;52369;52.542;13.232;2023-02-28T09:10:44;7.72;;;3.58;;
65667;SDS011;52369;52.542;13.232;2023-02-28T09:13:10;7.38;;;3.70;;
65667;SDS011;52369;52.542;13.232;2023-02-28T09:15:37;21.40;;;11.27;;
65667;SDS011;52369;52.542;13.232;2023-02-28T09:18:03;9.27;;;3.33;;
65667;SDS011;52369;52.542;13.232;2023-02-28T09:20:29;8.30;;;3.75;;
65667;SDS011;52369;52.542;13.232;2023-02-28T09:22:55;7.22;;;3.17;;
65667;SDS011;52369;52.542;13.232;2023-02-28T09:25:21;10.50;;;3.40;;
65667;SDS011;52369;52.542;13.232;2023-02-28T09:27:47;19.98;;;8.38;;
65667;SDS011;52369;52.542;13.232;2023-02-28T09:30:13;10.80;;;2.92;;
65667;SDS011;52369;52.542;13.232;2023-02-28T09:32:40;9.60;;;2.97;;
65667;SDS011;52369;52.542;13.232;2023-02-28T09:35:06;7.65;;;3.45;;
65667;SDS011;52369;52.542;13.232;2023-02-28T09:37:38;8.52;;;2.65;;
65667;SDS011;52369;52.542;13.232;2023-02-28T09:40:04;8.13;;;2.80;;
65667;SDS011;52369;52.542;13.232;2023-02-28T09:42:31;10.18;;;3.28;;
65667;SDS011;52369;52.542;13.232;2023-02-28T09:44:58;5.68;;;2.95;;
65667;SDS011;52369;52.542;13.232;2023-02-28T09:47:29;6.82;;;2.25;;
65667;SDS011;52369;52.542;13.232;2023-02-28T09:49:58;6.80;;;2.42;;
65667;SDS011;52369;52.542;13.232;2023-02-28T09:52:27;8.35;;;2.53;;
65667;SDS011;52369;52.542;13.232;2023-02-28T09:54:55;8.43;;;3.60;;
65667;SDS011;52369;52.542;13.232;2023-02-28T09:57:39;17.20;;;7.72;;
65667;SDS011;52369;52.542;13.232;2023-02-28T10:05:14;9.18;;;2.88;;
65667;SDS011;52369;52.542;13.232;2023-02-28T10:10:17;5.43;;;2.50;;
65667;SDS011;52369;52.542;13.232;2023-02-28T10:12:44;8.07;;;2.70;;
65667;SDS011;52369;52.542;13.232;2023-02-28T10:15:14;8.32;;;2.63;;
65667;SDS011;52369;52.542;13.232;2023-02-28T10:17:41;4.18;;;2.33;;
65667;SDS011;52369;52.542;13.232;2023-02-28T10:20:12;7.30;;;2.80;;
65667;SDS011;52369;52.542;13.232;2023-02-28T10:25:22;2.85;;;2.10;;
65667;SDS011;52369;52.542;13.232;2023-02-28T10:27:49;7.93;;;2.83;;
65667;SDS011;52369;52.542;13.232;2023-02-28T10:30:15;4.40;;;2.60;;
65667;SDS011;52369;52.542;13.232;2023-02-28T10:32:44;6.55;;;2.75;;
65667;SDS011;52369;52.542;13.232;2023-02-28T10:35:17;9.13;;;3.10;;
65667;SDS011;52369;52.542;13.232;2023-02-28T10:37:45;9.77;;;4.20;;
65667;SDS011;52369;52.542;13.232;2023-02-28T10:42:54;17.00;;;6.15;;
65667;SDS011;52369;52.542;13.232;2023-02-28T10:45:21;18.08;;;4.88;;
65667;SDS011;52369;52.542;13.232;2023-02-28T10:50:42;13.00;;;4.10;;
65667;SDS011;52369;52.542;13.232;2023-02-28T10:55:36;7.95;;;2.75;;
65667;SDS011;52369;52.542;13.232;2023-02-28T10:58:02;13.40;;;4.82;;
65667;SDS011;52369;52.542;13.232;2023-02-28T11:00:33;4.53;;;2.53;;
65667;SDS011;52369;52.542;13.232;2023-02-28T11:02:59;6.13;;;3.00;;
65667;SDS011;52369;52.542;13.232;2023-02-28T11:05:32;8.00;;;2.70;;
65667;SDS011;52369;52.542;13.232;2023-02-28T11:08:20;6.53;;;2.60;;
65667;SDS011;52369;52.542;13.232;2023-02-28T11:10:53;5.82;;;2.10;;
65667;SDS011;52369;52.542;13.232;2023-02-28T11:13:20;9.30;;;3.40;;
65667;SDS011;52369;52.542;13.232;2023-02-28T11:15:54;5.28;;;2.80;;
65667;SDS011;52369;52.542;13.232;2023-02-28T11:18:42;4.50;;;2.60;;
65667;SDS011;52369;52.542;13.232;2023-02-28T11:21:07;5.18;;;2.15;;
65667;SDS011;52369;52.542;13.232;2023-02-28T11:23:35;9.93;;;3.28;;
65667;SDS011;52369;52.542;13.232;2023-02-28T11:26:02;5.32;;;2.25;;
65667;SDS011;52369;52.542;13.232;2023-02-28T11:28:34;3.90;;;2.03;;
65667;SDS011;52369;52.542;13.232;2023-02-28T11:31:02;5.78;;;1.80;;
65667;SDS011;52369;52.542;13.232;2023-02-28T11:36:00;8.50;;;3.13;;
65667;SDS011;52369;52.542;13.232;2023-02-28T11:38:27;8.10;;;3.50;;
65667;SDS011;52369;52.542;13.232;2023-02-28T11:46:06;5.55;;;2.92;;
65667;SDS011;52369;52.542;13.232;2023-02-28T11:51:07;4.40;;;2.03;;
65667;SDS011;52369;52.542;13.232;2023-02-28T12:01:28;5.22;;;2.17;;
65667;SDS011;52369;52.542;13.232;2023-02-28T12:06:57;9.50;;;3.15;;
65667;SDS011;52369;52.542;13.232;2023-02-28T12:20:09;4.68;;;2.22;;
65667;SDS011;52369;52.542;13.232;2023-02-28T12:22:43;4.95;;;2.60;;
65667;SDS011;52369;52.542;13.232;2023-02-28T12:25:18;4.32;;;2.50;;
65667;SDS011;52369;52.542;13.232;2023-02-28T12:27:46;6.68;;;2.50;;
65667;SDS011;52369;52.542;13.232;2023-02-28T12:30:27;4.75;;;2.53;;
65667;SDS011;52369;52.542;13.232;2023-02-28T12:33:04;5.38;;;2.60;;
65667;SDS011;52369;52.542;13.232;2023-02-28T12:35:35;5.15;;;2.25;;
65667;SDS011;52369;52.542;13.232;2023-02-28T12:38:10;5.07;;;2.25;;
65667;SDS011;52369;52.542;13.232;2023-02-28T12:43:21;4.85;;;2.75;;
65667;SDS011;52369;52.542;13.232;2023-02-28T12:45:52;7.88;;;3.97;;
65667;SDS011;52369;52.542;13.232;2023-02-28T12:48:24;5.80;;;2.50;;
65667;SDS011;52369;52.542;13.232;2023-02-28T12:50:51;6.20;;;3.00;;
65667;SDS011;52369;52.542;13.232;2023-02-28T12:53:25;7.03;;;3.20;;
65667;SDS011;52369;52.542;13.232;2023-02-28T13:09:26;37.97;;;14.48;;
65667;SDS011;52369;52.542;13.232;2023-02-28T13:11:54;9.05;;;4.18;;
65667;SDS011;52369;52.542;13.232;2023-02-28T13:14:26;14.55;;;5.75;;
65667;SDS011;52369;52.542;13.232;2023-02-28T13:19:23;10.32;;;3.67;;
65667;SDS011;52369;52.542;13.232;2023-02-28T13:21:53;11.68;;;5.05;;
65667;SDS011;52369;52.542;13.232;2023-02-28T13:24:40;7.93;;;3.92;;
65667;SDS011;52369;52.542;13.232;2023-02-28T13:29:34;5.28;;;3.17;;
65667;SDS011;52369;52.542;13.232;2023-02-28T13:34:31;6.72;;;3.30;;
65667;SDS011;52369;52.542;13.232;2023-02-28T13:55:37;7.50;;;3.65;;
65667;SDS011;52369;52.542;13.232;2023-02-28T14:00:58;8.48;;;4.10;;
65667;SDS011;52369;52.542;13.232;2023-02-28T14:03:30;7.03;;;3.60;;
65667;SDS011;52369;52.542;13.232;2023-02-28T14:08:24;6.20;;;3.50;;
65667;SDS011;52369;52.542;13.232;2023-02-28T14:10:52;6.85;;;3.50;;
65667;SDS011;52369;52.542;13.232;2023-02-28T14:13:40;5.63;;;3.58;;
65667;SDS011;52369;52.542;13.232;2023-02-28T14:16:13;8.57;;;4.00;;
65667;SDS011;52369;52.542;13.232;2023-02-28T14:18:47;9.15;;;3.85;;
65667;SDS011;52369;52.542;13.232;2023-02-28T14:21:33;7.95;;;3.97;;
65667;SDS011;52369;52.542;13.232;2023-02-28T14:29:32;8.40;;;3.83;;
65667;SDS011;52369;52.542;13.232;2023-02-28T14:35:05;8.45;;;4.28;;
65667;SDS011;52369;52.542;13.232;2023-02-28T14:37:37;7.75;;;3.90;;
65667;SDS011;52369;52.542;13.232;2023-02-28T14:40:04;9.15;;;4.20;;
65667;SDS011;52369;52.542;13.232;2023-02-28T14:42:37;9.68;;;4.43;;
65667;SDS011;52369;52.542;13.232;2023-02-28T14:45:16;6.57;;;3.67;;
65667;SDS011;52369;52.542;13.232;2023-02-28T14:47:43;8.07;;;3.67;;
65667;SDS011;52369;52.542;13.232;2023-02-28T14:50:17;6.75;;;3.65;;
65667;SDS011;52369;52.542;13.232;2023-02-28T14:52:44;8.43;;;3.15;;
65667;SDS011;52369;52.542;13.232;2023-02-28T14:55:12;6.93;;;3.53;;
65667;SDS011;52369;52.542;13.232;2023-02-28T14:57:41;6.10;;;3.35;;
65667;SDS011;52369;52.542;13.232;2023-02-28T15:00:16;10.52;;;5.63;;
65667;SDS011;52369;52.542;13.232;2023-02-28T15:02:43;9.93;;;5.10;;
65667;SDS011;52369;52.542;13.232;2023-02-28T15:07:35;6.90;;;3.45;;
65667;SDS011;52369;52.542;13.232;2023-02-28T15:10:13;6.45;;;3.33;;
65667;SDS011;52369;52.542;13.232;2023-02-28T15:12:50;6.55;;;3.35;;
65667;SDS011;52369;52.542;13.232;2023-02-28T15:15:17;8.10;;;3.38;;
65667;SDS011;52369;52.542;13.232;2023-02-28T15:17:48;7.85;;;3.47;;
65667;SDS011;52369;52.542;13.232;2023-02-28T15:20:15;11.68;;;3.85;;
65667;SDS011;52369;52.542;13.232;2023-02-28T15:22:43;6.55;;;3.20;;
65667;SDS011;52369;52.542;13.232;2023-02-28T15:25:10;8.35;;;4.30;;
65667;SDS011;52369;52.542;13.232;2023-02-28T15:27:42;10.57;;;4.03;;
65667;SDS011;52369;52.542;13.232;2023-02-28T15:30:15;7.80;;;3.80;;
65667;SDS011;52369;52.542;13.232;2023-02-28T15:32:41;5.90;;;3.20;;
65667;SDS011;52369;52.542;13.232;2023-02-28T15:37:47;13.88;;;6.25;;
65667;SDS011;52369;52.542;13.232;2023-02-28T15:42:42;11.88;;;5.07;;
65667;SDS011;52369;52.542;13.232;2023-02-28T15:45:28;11.63;;;5.20;;
65667;SDS011;52369;52.542;13.232;2023-02-28T15:47:54;11.70;;;4.00;;
65667;SDS011;52369;52.542;13.232;2023-02-28T15:50:21;9.05;;;3.75;;
65667;SDS011;52369;52.542;13.232;2023-02-28T15:52:47;13.35;;;4.90;;
65667;SDS011;52369;52.542;13.232;2023-02-28T15:55:20;10.00;;;4.60;;
65667;SDS011;52369;52.542;13.232;2023-02-28T15:57:49;13.40;;;5.00;;
65667;SDS011;52369;52.542;13.232;2023-02-28T16:00:18;7.15;;;3.70;;
65667;SDS011;52369;52.542;13.232;2023-02-28T16:02:45;9.73;;;3.90;;
65667;SDS011;52369;52.542;13.232;2023-02-28T16:07:40;9.23;;;4.40;;
65667;SDS011;52369;52.542;13.232;2023-02-28T16:10:06;7.55;;;3.63;;
65667;SDS011;52369;52.542;13.232;2023-02-28T16:12:36;11.13;;;4.20;;
65667;SDS011;52369;52.542;13.232;2023-02-28T16:15:06;12.85;;;4.28;;
65667;SDS011;52369;52.542;13.232;2023-02-28T16:17:34;9.65;;;3.28;;
65667;SDS011;52369;52.542;13.232;2023-02-28T16:20:00;9.05;;;3.60;;
65667;SDS011;52369;52.542;13.232;2023-02-28T16:22:28;7.85;;;3.85;;
65667;SDS011;52369;52.542;13.232;2023-02-28T16:24:54;12.57;;;4.07;;
65667;SDS011;52369;52.542;13.232;2023-02-28T16:27:21;11.00;;;4.35;;
65667;SDS011;52369;52.542;13.232;2023-02-28T16:29:47;10.10;;;4.32;;
65667;SDS011;52369;52.542;13.232;2023-02-28T16:32:15;12.02;;;4.43;;
65667;SDS011;52369;52.542;13.232;2023-02-28T16:34:42;10.07;;;4.28;;
65667;SDS011;52369;52.542;13.232;2023-02-28T16:37:11;8.80;;;3.90;;
65667;SDS011;52369;52.542;13.232;2023-02-28T16:39:38;8.48;;;4.20;;
65667;SDS011;52369;52.542;13.232;2023-02-28T16:42:04;8.52;;;4.10;;
65667;SDS011;52369;52.542;13.232;2023-02-28T16:44:33;8.60;;;4.30;;
65667;SDS011;52369;52.542;13.232;2023-02-28T16:47:01;10.63;;;4.32;;
65667;SDS011;52369;52.542;13.232;2023-02-28T16:49:27;14.52;;;4.43;;
65667;SDS011;52369;52.542;13.232;2023-02-28T16:51:53;10.55;;;4.22;;
65667;SDS011;52369;52.542;13.232;2023-02-28T16:54:19;8.13;;;4.03;;
65667;SDS011;52369;52.542;13.232;2023-02-28T16:56:46;12.88;;;4.53;;
65667;SDS011;52369;52.542;13.232;2023-02-28T16:59:12;9.55;;;4.63;;